createdAt,value
2024-01-28T00:02:23.797Z,2.15
2024-01-28T00:04:50.632Z,2.20
2024-01-28T00:07:17.476Z,2.15
2024-01-28T00:09:44.342Z,2.20
2024-01-28T00:12:11.182Z,2.10
2024-01-28T00:14:38.776Z,2.10
2024-01-28T00:17:07.999Z,2.28
2024-01-28T00:19:36.142Z,2.20
2024-01-28T00:22:03.885Z,2.10
2024-01-28T00:24:30.700Z,2.05
2024-01-28T00:26:57.602Z,2.30
2024-01-28T00:29:29.483Z,2.28
2024-01-28T00:31:56.735Z,2.20
2024-01-28T00:34:23.935Z,2.00
2024-01-28T00:36:50.943Z,2.20
2024-01-28T00:39:17.980Z,2.08
2024-01-28T00:41:44.760Z,2.10
2024-01-28T00:44:11.508Z,2.17
2024-01-28T00:46:38.294Z,2.15
2024-01-28T00:49:05.493Z,2.17
2024-01-28T00:51:32.964Z,2.05
2024-01-28T00:54:00.971Z,2.10
2024-01-28T00:56:27.864Z,2.20
2024-01-28T00:58:54.697Z,2.10
2024-01-28T01:01:21.561Z,2.00
2024-01-28T01:03:48.574Z,2.00
2024-01-28T01:06:15.670Z,2.10
2024-01-28T01:08:42.663Z,2.17
2024-01-28T01:11:09.522Z,2.10
2024-01-28T01:13:36.349Z,2.03
2024-01-28T01:16:03.352Z,2.20
2024-01-28T01:18:30.239Z,2.10
2024-01-28T01:20:57.103Z,2.17
2024-01-28T01:23:23.947Z,2.20
2024-01-28T01:25:50.469Z,2.20
2024-01-28T01:28:17.563Z,2.10
2024-01-28T01:30:44.540Z,2.05
2024-01-28T01:33:11.849Z,2.20
2024-01-28T01:35:38.758Z,2.10
2024-01-28T01:38:05.739Z,2.10
2024-01-28T01:40:32.529Z,2.20
2024-01-28T01:42:59.354Z,2.10
2024-01-28T01:45:26.295Z,2.10
2024-01-28T01:47:53.481Z,2.00
2024-01-28T01:50:20.426Z,2.00
2024-01-28T01:52:47.185Z,2.00
2024-01-28T01:55:13.960Z,2.00
2024-01-28T01:57:42.016Z,2.30
2024-01-28T02:00:11.827Z,2.10
2024-01-28T02:02:38.575Z,2.20
2024-01-28T02:05:06.997Z,2.10
2024-01-28T02:07:33.943Z,2.10
2024-01-28T02:10:00.754Z,2.30
2024-01-28T02:12:27.652Z,2.20
2024-01-28T02:15:03.733Z,2.10
2024-01-28T02:17:30.557Z,2.10
2024-01-28T02:19:57.379Z,2.25
2024-01-28T02:22:24.224Z,2.00
2024-01-28T02:24:54.006Z,2.20
2024-01-28T02:27:21.003Z,2.00
2024-01-28T02:29:47.764Z,2.00
2024-01-28T02:32:16.232Z,2.25
2024-01-28T02:34:43.094Z,2.00
2024-01-28T02:37:11.091Z,2.10
2024-01-28T02:39:41.549Z,2.20
2024-01-28T02:42:08.926Z,2.10
2024-01-28T02:44:35.731Z,2.10
2024-01-28T02:47:02.562Z,2.20
2024-01-28T02:49:29.401Z,2.20
2024-01-28T02:51:56.564Z,2.10
2024-01-28T02:54:23.880Z,2.10
2024-01-28T02:56:52.532Z,1.95
2024-01-28T02:59:19.347Z,2.10
2024-01-28T03:01:52.107Z,2.00
2024-01-28T03:04:20.504Z,2.10
2024-01-28T03:06:47.434Z,2.10
2024-01-28T03:09:14.476Z,2.05
2024-01-28T03:11:41.428Z,2.20
2024-01-28T03:14:08.156Z,2.10
2024-01-28T03:16:34.986Z,2.10
2024-01-28T03:19:01.859Z,2.10
2024-01-28T03:21:28.765Z,2.10
2024-01-28T03:23:55.580Z,2.10
2024-01-28T03:26:22.341Z,2.20
2024-01-28T03:28:49.103Z,2.10
2024-01-28T03:31:15.888Z,2.10
2024-01-28T03:33:42.986Z,2.00
2024-01-28T03:36:09.858Z,2.00
2024-01-28T03:38:36.883Z,2.05
2024-01-28T03:41:03.704Z,2.20
2024-01-28T03:43:30.196Z,1.92
2024-01-28T03:45:57.003Z,2.10
2024-01-28T03:48:24.174Z,2.00
2024-01-28T03:50:51.077Z,1.90
2024-01-28T03:53:20.456Z,2.03
2024-01-28T03:55:47.254Z,2.20
2024-01-28T03:58:14.107Z,2.00
2024-01-28T04:00:41.228Z,2.25
2024-01-28T04:03:09.232Z,1.90
2024-01-28T04:05:35.979Z,1.90
2024-01-28T04:08:03.147Z,2.03
2024-01-28T04:10:29.659Z,2.10
2024-01-28T04:12:56.153Z,2.00
2024-01-28T04:15:22.713Z,2.20
2024-01-28T04:17:49.340Z,2.20
2024-01-28T04:20:16.453Z,2.00
2024-01-28T04:22:46.176Z,2.10
2024-01-28T04:25:13.531Z,2.10
2024-01-28T04:27:41.833Z,2.10
2024-01-28T04:30:11.946Z,2.00
2024-01-28T04:32:38.372Z,2.10
2024-01-28T04:35:05.552Z,2.10
2024-01-28T04:37:32.035Z,2.10
2024-01-28T04:39:58.566Z,2.20
2024-01-28T04:42:25.081Z,2.15
2024-01-28T04:44:51.776Z,2.00
2024-01-28T04:47:18.347Z,2.10
2024-01-28T04:49:46.268Z,1.90
2024-01-28T04:52:13.645Z,2.17
2024-01-28T04:54:40.244Z,2.10
2024-01-28T04:57:07.135Z,2.00
2024-01-28T04:59:33.689Z,2.10
2024-01-28T05:02:00.109Z,2.00
2024-01-28T05:04:26.607Z,2.10
2024-01-28T05:06:53.359Z,2.00
2024-01-28T05:09:19.831Z,2.10
2024-01-28T05:11:46.323Z,2.20
2024-01-28T05:14:12.765Z,2.00
2024-01-28T05:16:39.190Z,2.20
2024-01-28T05:19:07.484Z,2.10
2024-01-28T05:21:34.557Z,2.20
2024-01-28T05:24:04.503Z,2.00
2024-01-28T05:26:32.031Z,2.20
2024-01-28T05:29:05.809Z,2.00
2024-01-28T05:31:33.178Z,2.12
2024-01-28T05:34:01.651Z,2.00
2024-01-28T05:36:29.133Z,2.10
2024-01-28T05:38:55.565Z,2.00
2024-01-28T05:41:22.037Z,2.00
2024-01-28T05:43:48.461Z,2.10
2024-01-28T05:46:14.936Z,2.08
2024-01-28T05:48:41.776Z,2.10
2024-01-28T05:51:09.241Z,2.00
2024-01-28T05:53:35.667Z,2.33
2024-01-28T05:56:02.164Z,2.00
2024-01-28T05:58:28.697Z,2.10
2024-01-28T06:00:55.420Z,2.00
2024-01-28T06:03:21.976Z,2.28
2024-01-28T06:05:48.511Z,2.10
2024-01-28T06:08:16.599Z,2.10
2024-01-28T06:10:43.220Z,2.20
2024-01-28T06:13:09.702Z,2.20
2024-01-28T06:15:36.236Z,2.20
2024-01-28T06:18:03.124Z,2.20
2024-01-28T06:20:29.597Z,2.10
2024-01-28T06:22:56.049Z,2.08
2024-01-28T06:25:22.534Z,2.15
2024-01-28T06:27:49.093Z,2.10
2024-01-28T06:30:15.995Z,2.10
2024-01-28T06:32:42.882Z,2.33
2024-01-28T06:35:09.556Z,2.20
2024-01-28T06:37:38.183Z,2.10
2024-01-28T06:40:05.442Z,2.17
2024-01-28T06:42:32.936Z,2.10
2024-01-28T06:45:00.226Z,2.10
2024-01-28T06:47:26.702Z,2.08
2024-01-28T06:49:53.313Z,2.05
2024-01-28T06:52:19.777Z,2.25
2024-01-28T06:54:47.364Z,2.12
2024-01-28T06:57:14.573Z,2.20
2024-01-28T06:59:43.543Z,2.20
2024-01-28T07:02:10.086Z,2.10
2024-01-28T07:04:37.001Z,2.10
2024-01-28T07:07:04.184Z,2.20
2024-01-28T07:09:30.960Z,2.05
2024-01-28T07:11:57.621Z,2.10
2024-01-28T07:14:24.198Z,2.00
2024-01-28T07:16:51.086Z,2.10
2024-01-28T07:19:17.744Z,2.10
2024-01-28T07:21:45.176Z,2.20
2024-01-28T07:24:11.693Z,2.10
2024-01-28T07:26:38.365Z,2.03
2024-01-28T07:29:04.839Z,2.10
2024-01-28T07:31:31.322Z,2.10
2024-01-28T07:33:58.394Z,2.10
2024-01-28T07:36:25.249Z,2.10
2024-01-28T07:38:51.854Z,2.20
2024-01-28T07:41:18.394Z,2.20
2024-01-28T07:43:44.929Z,2.00
2024-01-28T07:46:11.369Z,2.00
2024-01-28T07:48:37.998Z,2.00
2024-01-28T07:51:04.786Z,2.10
2024-01-28T07:53:31.348Z,2.12
2024-01-28T07:55:58.387Z,2.20
2024-01-28T07:58:24.797Z,1.90
2024-01-28T08:00:51.283Z,2.00
2024-01-28T08:03:17.769Z,2.10
2024-01-28T08:05:44.300Z,2.08
2024-01-28T08:08:11.957Z,2.05
2024-01-28T08:10:40.233Z,2.15
2024-01-28T08:13:06.657Z,2.10
2024-01-28T08:15:33.206Z,2.10
2024-01-28T08:17:59.792Z,2.30
2024-01-28T08:20:26.227Z,2.10
2024-01-28T08:22:52.670Z,2.10
2024-01-28T08:25:19.214Z,2.12
2024-01-28T08:27:45.680Z,2.20
2024-01-28T08:30:13.178Z,2.10
2024-01-28T08:32:39.656Z,2.20
2024-01-28T08:35:07.275Z,2.40
2024-01-28T08:37:33.733Z,2.60
2024-01-28T08:40:00.429Z,2.60
2024-01-28T08:42:29.383Z,2.60
2024-01-28T08:44:55.799Z,2.55
2024-01-28T08:47:22.301Z,2.70
2024-01-28T08:49:49.249Z,2.33
2024-01-28T08:52:15.744Z,2.40
2024-01-28T08:54:45.811Z,2.55
2024-01-28T08:57:12.842Z,2.30
2024-01-28T08:59:39.350Z,2.35
2024-01-28T09:02:07.772Z,2.30
2024-01-28T09:04:34.842Z,2.30
2024-01-28T09:07:01.438Z,2.50
2024-01-28T09:09:29.862Z,2.50
2024-01-28T09:11:59.200Z,2.58
2024-01-28T09:14:27.158Z,2.30
2024-01-28T09:16:53.584Z,2.20
2024-01-28T09:19:20.083Z,2.30
2024-01-28T09:21:46.981Z,2.30
2024-01-28T09:24:13.579Z,2.50
2024-01-28T09:26:40.105Z,2.20
2024-01-28T09:29:06.545Z,2.50
2024-01-28T09:31:33.154Z,2.62
2024-01-28T09:33:59.865Z,2.30
2024-01-28T09:36:26.509Z,2.30
2024-01-28T09:38:52.984Z,2.22
2024-01-28T09:41:42.777Z,2.47
2024-01-28T09:44:11.053Z,2.40
2024-01-28T09:46:37.687Z,2.30
2024-01-28T09:49:04.370Z,2.40
2024-01-28T09:51:31.352Z,2.20
2024-01-28T09:53:57.955Z,2.35
2024-01-28T09:56:25.755Z,2.40
2024-01-28T09:58:53.908Z,2.50
2024-01-28T10:01:20.331Z,2.30
2024-01-28T10:03:46.884Z,2.75
2024-01-28T10:06:13.529Z,2.90
2024-01-28T10:08:43.752Z,2.50
2024-01-28T10:11:10.658Z,2.50
2024-01-28T10:13:37.485Z,2.50
2024-01-28T10:16:04.474Z,2.40
2024-01-28T10:18:31.229Z,2.30
2024-01-28T10:20:58.126Z,2.50
2024-01-28T10:23:24.911Z,2.42
2024-01-28T10:25:52.166Z,2.30
2024-01-28T10:28:19.117Z,2.37
2024-01-28T10:30:49.913Z,2.30
2024-01-28T10:33:17.220Z,2.58
2024-01-28T10:35:45.485Z,2.60
2024-01-28T10:38:14.324Z,2.90
2024-01-28T10:40:41.115Z,2.85
2024-01-28T10:43:07.974Z,2.37
2024-01-28T10:45:36.659Z,2.30
2024-01-28T10:48:12.476Z,2.70
2024-01-28T10:50:39.354Z,2.97
2024-01-28T10:53:05.863Z,3.00
2024-01-28T10:55:32.996Z,2.60
2024-01-28T10:57:59.946Z,2.50
2024-01-28T11:00:27.285Z,2.40
2024-01-28T11:02:55.678Z,2.40
2024-01-28T11:05:22.135Z,2.50
2024-01-28T11:07:51.213Z,2.55
2024-01-28T11:10:18.479Z,2.60
2024-01-28T11:12:45.016Z,2.60
2024-01-28T11:15:13.190Z,2.85
2024-01-28T11:17:39.772Z,2.47
2024-01-28T11:20:15.709Z,2.60
2024-01-28T11:22:52.706Z,2.90
2024-01-28T11:25:26.472Z,3.17
2024-01-28T11:28:01.126Z,2.90
2024-01-28T11:30:29.438Z,2.70
2024-01-28T11:33:13.594Z,2.35
2024-01-28T11:35:43.619Z,2.35
2024-01-28T11:38:12.526Z,2.30
2024-01-28T11:40:40.194Z,2.40
2024-01-28T11:43:08.371Z,2.40
2024-01-28T11:45:37.946Z,2.40
2024-01-28T11:48:11.465Z,2.35
2024-01-28T11:50:39.180Z,2.50
2024-01-28T11:53:05.832Z,2.30
2024-01-28T11:55:33.889Z,2.40
2024-01-28T11:58:00.336Z,2.30
2024-01-28T12:00:27.502Z,2.50
2024-01-28T12:02:54.072Z,2.80
2024-01-28T12:05:20.523Z,2.50
2024-01-28T12:07:47.459Z,2.42
2024-01-28T12:10:14.230Z,2.40
2024-01-28T12:12:41.577Z,2.60
2024-01-28T12:15:09.232Z,2.60
2024-01-28T12:17:39.539Z,2.50
2024-01-28T12:20:06.946Z,2.55
2024-01-28T12:22:40.108Z,2.67
2024-01-28T12:25:10.635Z,2.80
2024-01-28T12:27:40.704Z,2.40
2024-01-28T12:30:10.913Z,2.60
2024-01-28T12:32:40.678Z,2.55
2024-01-28T12:35:14.064Z,2.42
2024-01-28T12:37:40.590Z,2.70
2024-01-28T12:40:09.268Z,2.33
2024-01-28T12:42:36.072Z,2.40
2024-01-28T12:45:02.967Z,2.40
2024-01-28T12:47:29.532Z,2.40
2024-01-28T12:49:56.180Z,2.50
2024-01-28T12:52:24.018Z,2.33
2024-01-28T12:54:50.571Z,2.25
2024-01-28T12:57:18.555Z,2.40
2024-01-28T12:59:45.193Z,2.50
2024-01-28T13:02:12.711Z,2.30
2024-01-28T13:04:41.937Z,2.35
2024-01-28T13:07:10.054Z,2.55
2024-01-28T13:09:38.307Z,2.50
2024-01-28T13:12:06.763Z,2.37
2024-01-28T13:14:33.189Z,2.30
2024-01-28T13:16:59.790Z,2.40
2024-01-28T13:19:26.574Z,2.60
2024-01-28T13:21:53.157Z,2.30
2024-01-28T13:24:20.501Z,2.28
2024-01-28T13:26:48.328Z,2.50
2024-01-28T13:29:14.842Z,2.40
2024-01-28T13:31:41.404Z,2.30
2024-01-28T13:34:08.073Z,2.40
2024-01-28T13:36:35.671Z,2.30
2024-01-28T13:39:02.484Z,2.20
2024-01-28T13:41:28.925Z,2.30
2024-01-28T13:43:55.329Z,2.28
2024-01-28T13:46:21.811Z,2.40
2024-01-28T13:48:48.447Z,2.30
2024-01-28T13:51:14.985Z,2.30
2024-01-28T13:53:41.570Z,2.30
2024-01-28T13:56:08.178Z,2.50
2024-01-28T13:58:34.680Z,2.30
2024-01-28T14:01:01.285Z,2.20
2024-01-28T14:03:27.914Z,2.30
2024-01-28T14:05:54.380Z,2.30
2024-01-28T14:08:22.266Z,2.25
2024-01-28T14:10:48.688Z,2.22
2024-01-28T14:13:15.081Z,2.25
2024-01-28T14:15:41.626Z,2.30
2024-01-28T14:18:08.706Z,2.40
2024-01-28T14:20:35.173Z,2.40
2024-01-28T14:23:01.637Z,2.47
2024-01-28T14:25:28.141Z,2.30
2024-01-28T14:27:54.955Z,2.40
2024-01-28T14:30:21.822Z,2.30
2024-01-28T14:32:48.356Z,2.28
2024-01-28T14:35:15.071Z,2.10
2024-01-28T14:37:41.589Z,2.15
2024-01-28T14:40:09.057Z,2.30
2024-01-28T14:42:35.505Z,2.20
2024-01-28T14:45:01.966Z,2.20
2024-01-28T14:47:28.663Z,2.45
2024-01-28T14:49:55.592Z,2.28
2024-01-28T14:52:22.074Z,2.30
2024-01-28T14:54:48.583Z,2.30
2024-01-28T14:57:15.063Z,2.30
2024-01-28T14:59:41.594Z,2.22
2024-01-28T15:02:08.075Z,2.20
2024-01-28T15:04:34.565Z,2.20
2024-01-28T15:07:01.197Z,2.35
2024-01-28T15:09:27.765Z,2.30
2024-01-28T15:11:54.265Z,2.20
2024-01-28T15:14:20.762Z,2.20
2024-01-28T15:16:47.177Z,2.30
2024-01-28T15:19:13.775Z,2.10
2024-01-28T15:21:40.461Z,2.30
2024-01-28T15:24:07.281Z,2.33
2024-01-28T15:26:33.704Z,2.25
2024-01-28T15:29:00.119Z,2.28
2024-01-28T15:31:26.620Z,2.20
2024-01-28T15:33:53.187Z,2.30
2024-01-28T15:36:20.005Z,2.20
2024-01-28T15:38:48.388Z,2.10
2024-01-28T15:41:14.828Z,2.17
2024-01-28T15:43:41.283Z,2.00
2024-01-28T15:46:08.262Z,2.47
2024-01-28T15:48:35.887Z,2.37
2024-01-28T15:51:04.456Z,2.30
2024-01-28T15:53:31.340Z,2.30
2024-01-28T15:55:57.937Z,2.30
2024-01-28T15:58:24.437Z,2.30
2024-01-28T16:00:50.931Z,2.25
2024-01-28T16:03:17.450Z,2.30
2024-01-28T16:05:44.078Z,2.40
2024-01-28T16:08:13.689Z,2.20
2024-01-28T16:10:41.153Z,2.20
2024-01-28T16:13:07.730Z,2.00
2024-01-28T16:15:34.305Z,2.15
2024-01-28T16:18:01.029Z,1.90
2024-01-28T16:20:27.790Z,2.00
2024-01-28T16:22:55.597Z,1.90
2024-01-28T16:25:22.855Z,2.10
2024-01-28T16:27:49.971Z,2.10
2024-01-28T16:30:16.609Z,2.05
2024-01-28T16:32:43.043Z,2.10
2024-01-28T16:35:10.066Z,2.20
2024-01-28T16:37:37.052Z,2.30
2024-01-28T16:40:04.126Z,2.20
2024-01-28T16:42:30.682Z,2.00
2024-01-28T16:47:46.208Z,2.10
2024-01-28T16:50:13.519Z,2.20
2024-01-28T16:52:40.681Z,2.25
2024-01-28T16:55:07.882Z,2.33
2024-01-28T16:57:37.550Z,2.10
2024-01-28T17:00:05.293Z,2.10
2024-01-28T17:02:31.902Z,2.10
2024-01-28T17:05:00.394Z,2.28
2024-01-28T17:07:27.590Z,2.28
2024-01-28T17:09:54.194Z,2.40
2024-01-28T17:12:20.708Z,2.10
2024-01-28T17:14:47.229Z,2.10
2024-01-28T17:17:13.868Z,2.17
2024-01-28T17:19:40.271Z,2.05
2024-01-28T17:22:07.123Z,2.30
2024-01-28T17:24:34.641Z,2.20
2024-01-28T17:27:01.232Z,2.10
2024-01-28T17:29:27.979Z,2.10
2024-01-28T17:31:55.242Z,2.25
2024-01-28T17:34:21.988Z,2.20
2024-01-28T17:36:48.539Z,2.10
2024-01-28T17:39:15.606Z,2.12
2024-01-28T17:41:42.176Z,2.10
2024-01-28T17:44:08.594Z,2.10
2024-01-28T17:46:35.147Z,2.10
2024-01-28T17:49:04.373Z,2.10
2024-01-28T17:51:34.444Z,2.10
2024-01-28T17:54:01.333Z,2.12
2024-01-28T17:56:27.783Z,2.30
2024-01-28T17:58:54.232Z,2.10
2024-01-28T18:01:22.708Z,2.03
2024-01-28T18:03:49.209Z,2.30
2024-01-28T18:06:15.710Z,2.10
2024-01-28T18:08:43.826Z,2.10
2024-01-28T18:11:10.271Z,2.00
2024-01-28T18:13:38.367Z,2.00
2024-01-28T18:16:06.780Z,2.22
2024-01-28T18:18:35.528Z,2.20
2024-01-28T18:21:03.491Z,2.10
2024-01-28T18:23:30.003Z,2.15
2024-01-28T18:25:56.697Z,1.90
2024-01-28T18:28:23.753Z,2.08
2024-01-28T18:30:54.634Z,2.10
2024-01-28T18:33:21.260Z,1.90
2024-01-28T18:35:51.826Z,2.10
2024-01-28T18:38:18.930Z,2.27
2024-01-28T18:40:45.483Z,2.00
2024-01-28T18:43:12.457Z,2.10
2024-01-28T18:45:41.929Z,2.00
2024-01-28T18:48:13.180Z,2.25
2024-01-28T18:50:45.493Z,2.20
2024-01-28T18:53:13.123Z,2.30
2024-01-28T18:55:42.468Z,2.20
2024-01-28T18:58:09.256Z,2.20
2024-01-28T19:00:38.754Z,2.00
2024-01-28T19:03:06.483Z,2.23
2024-01-28T19:05:33.564Z,2.10
2024-01-28T19:08:00.362Z,2.00
2024-01-28T19:10:26.782Z,2.15
2024-01-28T19:12:53.640Z,2.00
2024-01-28T19:15:20.127Z,2.20
2024-01-28T19:17:46.700Z,2.05
2024-01-28T19:20:19.809Z,2.20
2024-01-28T19:22:46.675Z,2.10
2024-01-28T19:25:16.967Z,2.10
2024-01-28T19:27:44.134Z,2.10
2024-01-28T19:30:12.370Z,2.20
2024-01-28T19:32:38.820Z,2.13
2024-01-28T19:35:06.115Z,2.17
2024-01-28T19:37:33.030Z,2.00
2024-01-28T19:39:59.801Z,2.20
2024-01-28T19:42:26.874Z,2.20
2024-01-28T19:44:53.727Z,2.08
2024-01-28T19:47:20.729Z,2.00
2024-01-28T19:49:47.575Z,2.00
2024-01-28T19:52:16.360Z,2.25
2024-01-28T19:54:42.794Z,2.08
2024-01-28T19:57:11.721Z,2.10
2024-01-28T19:59:38.733Z,2.15
2024-01-28T20:02:05.748Z,2.20
2024-01-28T20:04:32.558Z,2.10
2024-01-28T20:06:59.449Z,2.10
2024-01-28T20:09:26.287Z,2.25
2024-01-28T20:11:52.742Z,2.20
2024-01-28T20:14:19.607Z,2.35
2024-01-28T20:16:46.468Z,2.20
2024-01-28T20:19:17.848Z,2.15
2024-01-28T20:21:47.630Z,2.10
2024-01-28T20:24:14.422Z,2.00
2024-01-28T20:26:41.163Z,2.00
2024-01-28T20:29:07.810Z,2.00
2024-01-28T20:31:34.768Z,2.00
2024-01-28T20:34:02.213Z,2.10
2024-01-28T20:36:29.035Z,2.20
2024-01-28T20:38:56.028Z,2.00
2024-01-28T20:41:23.566Z,2.00
2024-01-28T20:43:52.549Z,2.20
2024-01-28T20:46:19.541Z,2.10
2024-01-28T20:48:49.283Z,2.17
2024-01-28T20:51:16.621Z,2.08
2024-01-28T20:53:43.412Z,2.30
2024-01-28T20:56:12.127Z,2.20
2024-01-28T20:58:40.209Z,2.30
2024-01-28T21:01:07.015Z,2.10
2024-01-28T21:03:34.005Z,2.03
2024-01-28T21:06:02.053Z,2.20
2024-01-28T21:08:28.920Z,2.07
2024-01-28T21:10:55.663Z,2.35
2024-01-28T21:13:22.531Z,2.10
2024-01-28T21:15:49.129Z,2.20
2024-01-28T21:18:15.653Z,2.10
2024-01-28T21:20:42.507Z,2.00
2024-01-28T21:23:08.927Z,2.20
2024-01-28T21:25:36.165Z,2.17
2024-01-28T21:28:03.070Z,2.20
2024-01-28T21:30:30.018Z,2.20
2024-01-28T21:32:57.161Z,2.27
2024-01-28T21:35:23.682Z,2.10
2024-01-28T21:37:50.272Z,2.30
2024-01-28T21:40:17.092Z,2.15
2024-01-28T21:42:44.630Z,2.20
2024-01-28T21:45:12.938Z,2.30
2024-01-28T21:47:39.783Z,2.50
2024-01-28T21:50:07.942Z,2.30
2024-01-28T21:52:34.722Z,2.20
2024-01-28T21:55:01.575Z,2.40
2024-01-28T21:57:31.482Z,2.30
2024-01-28T21:59:58.332Z,2.30
2024-01-28T22:02:25.132Z,2.20
2024-01-28T22:04:51.938Z,2.10
2024-01-28T22:07:19.053Z,2.35
2024-01-28T22:09:46.150Z,2.20
2024-01-28T22:12:12.932Z,2.47
2024-01-28T22:14:39.695Z,2.37
2024-01-28T22:17:06.470Z,2.10
2024-01-28T22:19:33.470Z,2.10
2024-01-28T22:22:00.176Z,2.03
2024-01-28T22:24:27.111Z,2.30
2024-01-28T22:26:54.456Z,2.40
2024-01-28T22:29:20.886Z,2.50
2024-01-28T22:31:47.738Z,2.50
2024-01-28T22:34:14.710Z,2.20
2024-01-28T22:36:43.319Z,2.70
2024-01-28T22:39:11.920Z,2.50
2024-01-28T22:41:40.257Z,2.47
2024-01-28T22:44:07.502Z,2.20
2024-01-28T22:46:34.369Z,2.15
2024-01-28T22:49:01.330Z,2.30
2024-01-28T22:51:27.982Z,2.20
2024-01-28T22:53:54.816Z,2.40
2024-01-28T22:56:21.711Z,2.47
2024-01-28T22:58:49.899Z,2.43
2024-01-28T23:01:17.427Z,2.10
2024-01-28T23:03:44.344Z,2.20
2024-01-28T23:06:15.322Z,2.30
2024-01-28T23:08:42.210Z,2.30
2024-01-28T23:11:09.021Z,2.30
2024-01-28T23:13:42.081Z,2.20
2024-01-28T23:16:09.232Z,2.30
2024-01-28T23:18:36.299Z,2.23
2024-01-28T23:21:03.237Z,2.30
2024-01-28T23:23:30.072Z,2.20
2024-01-28T23:25:56.865Z,2.20
2024-01-28T23:28:23.625Z,2.20
2024-01-28T23:30:50.593Z,2.20
2024-01-28T23:33:17.563Z,2.33
2024-01-28T23:35:45.453Z,2.30
2024-01-28T23:38:12.128Z,2.20
2024-01-28T23:40:39.230Z,2.40
2024-01-28T23:43:06.175Z,2.40
2024-01-28T23:45:33.720Z,2.30
2024-01-28T23:48:00.701Z,2.13
2024-01-28T23:50:27.168Z,2.20
2024-01-28T23:52:55.379Z,2.00
2024-01-28T23:55:22.736Z,2.20
2024-01-28T23:57:49.493Z,2.10
